createdAt,value
2022-08-14T00:01:50.171Z,8.88
2022-08-14T00:04:34.644Z,8.52
2022-08-14T00:07:02.042Z,8.75
2022-08-14T00:09:30.259Z,8.80
2022-08-14T00:12:00.528Z,8.10
2022-08-14T00:14:28.348Z,9.43
2022-08-14T00:16:55.908Z,8.70
2022-08-14T00:19:23.068Z,9.53
2022-08-14T00:21:50.944Z,9.73
2022-08-14T00:24:23.209Z,9.18
2022-08-14T00:26:57.801Z,9.73
2022-08-14T00:29:30.265Z,9.00
2022-08-14T00:31:59.924Z,9.48
2022-08-14T00:34:37.896Z,9.40
2022-08-14T00:37:13.213Z,10.05
2022-08-14T00:39:40.605Z,8.83
2022-08-14T00:42:52.664Z,10.03
2022-08-14T00:44:57.244Z,9.50
2022-08-14T00:47:24.768Z,9.05
2022-08-14T00:49:54.824Z,10.18
2022-08-14T00:52:22.016Z,9.02
2022-08-14T00:54:51.125Z,9.82
2022-08-14T00:57:27.409Z,9.10
2022-08-14T00:59:54.874Z,9.05
2022-08-14T01:02:21.816Z,8.98
2022-08-14T01:04:53.895Z,9.00
2022-08-14T01:07:22.701Z,9.40
2022-08-14T01:09:50.494Z,9.73
2022-08-14T01:12:27.267Z,9.65
2022-08-14T01:15:00.015Z,9.68
2022-08-14T01:17:30.802Z,9.43
2022-08-14T01:19:57.637Z,9.55
2022-08-14T01:22:26.955Z,9.35
2022-08-14T01:24:56.612Z,10.20
2022-08-14T01:27:25.273Z,9.80
2022-08-14T01:30:03.107Z,9.88
2022-08-14T01:32:37.522Z,10.07
2022-08-14T01:35:17.790Z,9.48
2022-08-14T01:37:58.345Z,9.50
2022-08-14T01:40:36.295Z,9.30
2022-08-14T01:43:08.626Z,9.50
2022-08-14T01:45:40.226Z,9.35
2022-08-14T01:48:07.819Z,9.70
2022-08-14T01:50:41.258Z,9.23
2022-08-14T01:53:10.481Z,9.43
2022-08-14T01:55:38.098Z,9.23
2022-08-14T01:58:19.509Z,10.25
2022-08-14T02:00:49.736Z,9.75
2022-08-14T02:03:16.633Z,9.65
2022-08-14T02:05:43.308Z,9.57
2022-08-14T02:08:11.421Z,9.45
2022-08-14T02:10:46.393Z,10.23
2022-08-14T02:13:16.090Z,10.23
2022-08-14T02:15:43.506Z,9.98
2022-08-14T02:18:10.657Z,10.25
2022-08-14T02:20:38.642Z,10.13
2022-08-14T02:23:08.307Z,10.35
2022-08-14T02:25:37.017Z,10.30
2022-08-14T02:28:25.727Z,10.80
2022-08-14T02:30:52.897Z,10.60
2022-08-14T02:33:19.745Z,10.15
2022-08-14T02:35:52.808Z,9.47
2022-08-14T02:38:30.109Z,9.57
2022-08-14T02:41:02.831Z,9.80
2022-08-14T02:43:36.437Z,10.18
2022-08-14T02:46:04.526Z,10.63
2022-08-14T02:49:03.452Z,10.00
2022-08-14T02:51:17.753Z,10.02
2022-08-14T02:53:46.379Z,9.38
2022-08-14T02:56:30.728Z,9.98
2022-08-14T02:59:05.648Z,9.57
2022-08-14T03:01:43.939Z,10.03
2022-08-14T03:04:20.286Z,9.63
2022-08-14T03:06:57.429Z,9.57
2022-08-14T03:09:41.998Z,9.70
2022-08-14T03:12:31.446Z,10.35
2022-08-14T03:14:59.409Z,10.10
2022-08-14T03:17:26.261Z,10.50
2022-08-14T03:19:58.348Z,9.65
2022-08-14T03:22:25.202Z,8.40
2022-08-14T03:24:54.429Z,10.17
2022-08-14T03:27:22.402Z,10.20
2022-08-14T03:29:53.222Z,9.95
2022-08-14T03:32:19.820Z,9.70
2022-08-14T03:34:58.506Z,10.07
2022-08-14T03:37:37.888Z,10.15
2022-08-14T03:40:12.011Z,9.45
2022-08-14T03:42:46.670Z,9.75
2022-08-14T03:45:25.666Z,9.55
2022-08-14T03:48:02.027Z,10.10
2022-08-14T03:50:31.627Z,10.03
2022-08-14T03:53:00.584Z,9.93
2022-08-14T03:55:27.557Z,9.60
2022-08-14T03:57:55.771Z,10.27
2022-08-14T04:00:42.808Z,9.93
2022-08-14T04:03:10.898Z,9.90
2022-08-14T04:05:43.015Z,9.73
2022-08-14T04:08:29.196Z,10.05
2022-08-14T04:10:58.428Z,10.40
2022-08-14T04:13:27.943Z,10.00
2022-08-14T04:16:01.951Z,9.43
2022-08-14T04:18:32.045Z,10.07
2022-08-14T04:21:00.970Z,10.13
2022-08-14T04:23:32.737Z,10.23
2022-08-14T04:26:02.031Z,9.25
2022-08-14T04:29:08.342Z,9.90
2022-08-14T04:31:18.565Z,9.10
2022-08-14T04:34:05.186Z,10.35
2022-08-14T04:36:32.562Z,10.25
2022-08-14T04:39:02.839Z,10.00
2022-08-14T04:41:30.302Z,11.20
2022-08-14T04:43:58.951Z,10.17
2022-08-14T04:46:55.730Z,10.25
2022-08-14T04:49:15.204Z,10.20
2022-08-14T04:51:46.844Z,10.30
2022-08-14T04:54:22.078Z,9.90
2022-08-14T04:56:51.174Z,10.40
2022-08-14T04:59:23.069Z,10.80
2022-08-14T05:01:55.097Z,9.85
2022-08-14T05:04:23.392Z,9.80
2022-08-14T05:06:53.697Z,10.07
2022-08-14T05:09:21.560Z,10.40
2022-08-14T05:11:48.289Z,10.50
2022-08-14T05:14:33.957Z,10.30
2022-08-14T05:17:03.853Z,11.02
2022-08-14T05:19:33.567Z,10.13
2022-08-14T05:22:17.571Z,11.05
2022-08-14T05:24:48.806Z,9.80
2022-08-14T05:27:17.814Z,10.33
2022-08-14T05:29:44.399Z,10.02
2022-08-14T05:32:12.350Z,9.30
2022-08-14T05:34:39.584Z,10.45
2022-08-14T05:37:06.811Z,9.85
2022-08-14T05:39:33.689Z,9.50
2022-08-14T05:42:00.902Z,9.77
2022-08-14T05:44:36.686Z,9.65
2022-08-14T05:47:03.382Z,8.90
2022-08-14T05:49:33.027Z,8.73
2022-08-14T05:52:01.677Z,10.60
2022-08-14T05:54:35.327Z,9.75
2022-08-14T05:57:02.974Z,9.73
2022-08-14T05:59:39.119Z,10.30
2022-08-14T06:02:06.846Z,10.02
2022-08-14T06:04:34.794Z,9.57
2022-08-14T06:07:02.178Z,9.63
2022-08-14T06:09:36.099Z,9.25
2022-08-14T06:12:08.175Z,9.37
2022-08-14T06:14:34.830Z,9.57
2022-08-14T06:17:01.476Z,9.00
2022-08-14T06:19:28.107Z,9.77
2022-08-14T06:21:58.995Z,9.52
2022-08-14T06:24:26.714Z,9.35
2022-08-14T06:26:56.773Z,9.40
2022-08-14T06:29:32.090Z,9.73
2022-08-14T06:32:37.362Z,9.45
2022-08-14T06:35:04.335Z,9.00
2022-08-14T06:37:41.569Z,9.63
2022-08-14T06:40:25.650Z,9.45
2022-08-14T06:42:54.794Z,9.05
2022-08-14T06:45:21.568Z,9.30
2022-08-14T06:47:53.907Z,8.80
2022-08-14T06:50:27.677Z,9.57
2022-08-14T06:52:56.465Z,9.07
2022-08-14T06:55:26.535Z,8.80
2022-08-14T06:57:54.687Z,8.67
2022-08-14T07:00:27.384Z,8.77
2022-08-14T07:02:57.012Z,8.55
2022-08-14T07:05:24.261Z,9.30
2022-08-14T07:07:51.369Z,8.68
2022-08-14T07:10:20.353Z,8.88
2022-08-14T07:12:56.322Z,9.15
2022-08-14T07:15:30.091Z,8.68
2022-08-14T07:17:59.477Z,8.43
2022-08-14T07:20:30.683Z,8.50
2022-08-14T07:23:00.542Z,8.85
2022-08-14T07:25:35.512Z,8.70
2022-08-14T07:28:09.858Z,8.30
2022-08-14T07:30:41.962Z,8.25
2022-08-14T07:33:24.305Z,9.15
2022-08-14T07:35:58.732Z,8.55
2022-08-14T07:38:27.507Z,9.00
2022-08-14T07:40:56.894Z,8.50
2022-08-14T07:43:25.079Z,9.40
2022-08-14T07:45:54.049Z,8.75
2022-08-14T07:48:25.272Z,9.13
2022-08-14T07:50:52.383Z,8.48
2022-08-14T07:53:22.391Z,8.65
2022-08-14T07:56:00.187Z,8.77
2022-08-14T07:58:39.067Z,8.17
2022-08-14T08:01:19.306Z,8.38
2022-08-14T08:03:47.745Z,8.63
2022-08-14T08:06:18.659Z,8.75
2022-08-14T08:09:01.120Z,9.18
2022-08-14T08:11:34.927Z,8.20
2022-08-14T08:14:06.948Z,8.27
2022-08-14T08:16:37.710Z,8.48
2022-08-14T08:19:12.827Z,8.50
2022-08-14T08:21:43.811Z,8.80
2022-08-14T08:24:14.970Z,8.73
2022-08-14T08:26:45.572Z,8.57
2022-08-14T08:29:19.593Z,8.45
2022-08-14T08:31:51.996Z,8.68
2022-08-14T08:34:19.688Z,8.85
2022-08-14T08:36:50.224Z,8.65
2022-08-14T08:39:21.998Z,8.40
2022-08-14T08:41:53.254Z,8.30
2022-08-14T08:44:32.904Z,7.80
2022-08-14T08:47:01.641Z,7.65
2022-08-14T08:49:36.568Z,7.78
2022-08-14T08:52:15.342Z,7.88
2022-08-14T08:54:53.816Z,7.40
2022-08-14T08:57:21.640Z,8.00
2022-08-14T08:59:55.308Z,7.60
2022-08-14T09:02:25.848Z,7.65
2022-08-14T09:05:02.087Z,7.07
2022-08-14T09:07:28.912Z,6.80
2022-08-14T09:09:59.803Z,7.53
2022-08-14T09:12:27.160Z,7.78
2022-08-14T09:15:01.912Z,7.70
2022-08-14T09:17:28.892Z,7.13
2022-08-14T09:19:55.934Z,6.53
2022-08-14T09:22:35.883Z,6.93
2022-08-14T09:25:06.992Z,6.88
2022-08-14T09:27:34.329Z,6.90
2022-08-14T09:30:31.224Z,7.47
2022-08-14T09:33:09.159Z,6.68
2022-08-14T09:35:49.755Z,7.10
2022-08-14T09:38:31.454Z,6.90
2022-08-14T09:41:09.373Z,6.78
2022-08-14T09:43:48.875Z,7.00
2022-08-14T09:46:21.446Z,6.90
2022-08-14T09:48:58.552Z,6.50
2022-08-14T09:51:25.975Z,6.13
2022-08-14T09:54:18.780Z,6.85
2022-08-14T09:56:51.624Z,6.88
2022-08-14T09:59:24.271Z,6.65
2022-08-14T10:01:53.207Z,7.10
2022-08-14T10:04:34.460Z,6.95
2022-08-14T10:07:04.362Z,6.95
2022-08-14T10:09:34.779Z,7.07
2022-08-14T10:12:04.332Z,7.82
2022-08-14T10:14:35.855Z,6.90
2022-08-14T10:17:06.955Z,7.40
2022-08-14T10:19:46.834Z,7.45
2022-08-14T10:23:21.819Z,6.88
2022-08-14T10:25:11.260Z,6.93
2022-08-14T10:27:37.869Z,7.20
2022-08-14T10:30:13.105Z,7.15
2022-08-14T10:32:51.433Z,7.13
2022-08-14T10:35:18.953Z,6.55
2022-08-14T10:37:50.972Z,6.80
2022-08-14T10:40:37.677Z,6.60
2022-08-14T10:43:23.355Z,6.82
2022-08-14T10:46:03.426Z,7.22
2022-08-14T10:48:57.957Z,6.90
2022-08-14T10:51:25.691Z,7.00
2022-08-14T10:53:56.950Z,6.77
2022-08-14T10:56:33.710Z,6.97
2022-08-14T10:59:01.873Z,6.13
2022-08-14T11:01:31.072Z,7.20
2022-08-14T11:04:00.575Z,7.25
2022-08-14T11:06:27.997Z,6.50
2022-08-14T11:08:54.984Z,6.70
2022-08-14T11:11:22.696Z,6.93
2022-08-14T11:13:49.323Z,6.88
2022-08-14T11:16:17.126Z,6.93
2022-08-14T11:18:50.727Z,6.20
2022-08-14T11:21:21.301Z,5.95
2022-08-14T11:23:48.841Z,6.22
2022-08-14T11:26:20.919Z,5.75
2022-08-14T11:28:50.126Z,6.30
2022-08-14T11:31:21.898Z,6.30
2022-08-14T11:33:50.452Z,6.07
2022-08-14T11:36:23.433Z,5.82
2022-08-14T11:38:50.140Z,6.07
2022-08-14T11:41:21.107Z,5.80
2022-08-14T11:43:57.866Z,5.97
2022-08-14T11:46:29.825Z,6.20
2022-08-14T11:49:05.732Z,6.20
2022-08-14T11:51:42.890Z,6.40
2022-08-14T11:54:34.047Z,6.25
2022-08-14T11:57:02.015Z,6.23
2022-08-14T11:59:32.960Z,6.50
2022-08-14T12:02:09.738Z,6.03
2022-08-14T12:04:56.470Z,6.00
2022-08-14T12:07:26.156Z,6.40
2022-08-14T12:09:56.239Z,6.70
2022-08-14T12:12:35.147Z,7.03
2022-08-14T12:15:04.409Z,6.70
2022-08-14T12:17:49.262Z,6.20
2022-08-14T12:20:29.550Z,6.30
2022-08-14T12:23:01.639Z,6.80
2022-08-14T12:25:29.104Z,6.35
2022-08-14T12:27:59.489Z,6.53
2022-08-14T12:30:37.625Z,6.45
2022-08-14T12:33:18.396Z,6.20
2022-08-14T12:35:46.163Z,5.87
2022-08-14T12:38:17.284Z,5.80
2022-08-14T12:40:47.777Z,5.90
2022-08-14T12:43:14.916Z,6.18
2022-08-14T12:45:46.899Z,6.25
2022-08-14T12:48:21.003Z,6.47
2022-08-14T12:50:58.108Z,7.20
2022-08-14T12:53:36.146Z,7.75
2022-08-14T12:56:22.357Z,7.53
2022-08-14T12:58:53.968Z,7.60
2022-08-14T13:01:22.637Z,7.47
2022-08-14T13:03:51.746Z,7.18
2022-08-14T13:06:19.740Z,11.65
2022-08-14T13:08:53.412Z,7.47
2022-08-14T13:11:23.911Z,7.53
2022-08-14T13:13:55.804Z,5.43
2022-08-14T13:16:33.593Z,5.18
2022-08-14T13:19:09.701Z,5.00
2022-08-14T13:21:58.670Z,5.65
2022-08-14T13:24:27.651Z,5.53
2022-08-14T13:26:56.058Z,6.17
2022-08-14T13:29:24.969Z,6.60
2022-08-14T13:31:53.749Z,5.90
2022-08-14T13:34:24.059Z,5.95
2022-08-14T13:36:59.135Z,6.30
2022-08-14T13:39:32.024Z,5.73
2022-08-14T13:42:04.714Z,5.90
2022-08-14T13:44:35.705Z,5.68
2022-08-14T13:47:03.901Z,5.60
2022-08-14T13:49:30.614Z,5.78
2022-08-14T13:52:01.527Z,5.40
2022-08-14T13:54:30.342Z,5.45
2022-08-14T13:57:00.822Z,5.55
2022-08-14T13:59:37.618Z,5.40
2022-08-14T14:02:07.984Z,5.75
2022-08-14T14:04:40.157Z,5.47
2022-08-14T14:07:09.307Z,6.53
2022-08-14T14:09:52.765Z,6.65
2022-08-14T14:12:38.354Z,6.80
2022-08-14T14:15:09.831Z,7.20
2022-08-14T14:17:39.075Z,7.07
2022-08-14T14:20:09.420Z,7.18
2022-08-14T14:23:02.817Z,7.35
2022-08-14T14:25:43.235Z,7.00
2022-08-14T14:28:24.521Z,7.25
2022-08-14T14:30:54.341Z,7.77
2022-08-14T14:33:45.138Z,7.22
2022-08-14T14:36:12.230Z,6.93
2022-08-14T14:38:41.267Z,7.60
2022-08-14T14:41:09.404Z,6.95
2022-08-14T14:43:40.904Z,7.97
2022-08-14T14:46:13.134Z,7.28
2022-08-14T14:48:40.705Z,7.90
2022-08-14T14:51:15.463Z,7.32
2022-08-14T14:53:44.303Z,7.30
2022-08-14T14:56:49.955Z,7.47
2022-08-14T14:58:59.711Z,7.95
2022-08-14T15:01:27.808Z,7.43
2022-08-14T15:03:54.695Z,7.80
2022-08-14T15:06:30.397Z,7.45
2022-08-14T15:09:00.842Z,6.63
2022-08-14T15:11:30.534Z,6.88
2022-08-14T15:14:00.485Z,7.45
2022-08-14T15:16:27.397Z,7.20
2022-08-14T15:18:54.214Z,6.97
2022-08-14T15:21:21.027Z,7.03
2022-08-14T15:23:49.381Z,7.28
2022-08-14T15:26:24.107Z,7.15
2022-08-14T15:29:02.364Z,7.60
2022-08-14T15:31:30.138Z,6.82
2022-08-14T15:34:00.931Z,6.97
2022-08-14T15:36:44.171Z,7.43
2022-08-14T15:39:11.209Z,6.45
2022-08-14T15:41:41.572Z,7.25
2022-08-14T15:44:19.001Z,7.07
2022-08-14T15:46:53.622Z,6.43
2022-08-14T15:49:20.338Z,6.53
2022-08-14T15:51:48.030Z,7.03
2022-08-14T15:54:17.665Z,6.85
2022-08-14T15:56:56.216Z,7.10
2022-08-14T15:59:27.100Z,6.87
2022-08-14T16:01:55.137Z,6.95
2022-08-14T16:04:22.163Z,7.25
2022-08-14T16:06:55.499Z,7.07
2022-08-14T16:09:22.661Z,7.10
2022-08-14T16:11:53.506Z,7.00
2022-08-14T16:14:21.688Z,6.50
2022-08-14T16:17:00.640Z,6.80
2022-08-14T16:19:28.929Z,6.80
2022-08-14T16:22:57.603Z,6.72
2022-08-14T16:25:00.548Z,7.50
2022-08-14T16:27:40.823Z,7.07
2022-08-14T16:30:11.676Z,7.45
2022-08-14T16:32:55.104Z,7.65
2022-08-14T16:35:22.377Z,7.32
2022-08-14T16:37:49.794Z,7.20
2022-08-14T16:40:16.721Z,7.00
2022-08-14T16:43:04.127Z,6.80
2022-08-14T16:45:31.413Z,7.00
2022-08-14T16:48:01.697Z,6.90
2022-08-14T16:50:43.223Z,7.00
2022-08-14T16:53:11.341Z,7.50
2022-08-14T16:55:53.387Z,7.47
2022-08-14T16:58:29.713Z,7.60
2022-08-14T17:01:22.581Z,6.93
2022-08-14T17:03:57.788Z,7.30
2022-08-14T17:06:43.020Z,7.60
2022-08-14T17:09:32.071Z,6.93
2022-08-14T17:12:07.211Z,6.95
2022-08-14T17:14:57.990Z,7.40
2022-08-14T17:17:27.531Z,7.30
2022-08-14T17:20:00.889Z,7.28
2022-08-14T17:22:48.692Z,7.38
2022-08-14T17:25:16.514Z,7.05
2022-08-14T17:28:51.329Z,6.95
2022-08-14T17:30:59.173Z,7.13
2022-08-14T17:33:31.217Z,7.30
2022-08-14T17:36:21.462Z,7.05
2022-08-14T17:39:06.939Z,6.90
2022-08-14T17:41:37.516Z,6.93
2022-08-14T17:44:21.649Z,7.50
2022-08-14T17:46:56.995Z,7.82
2022-08-14T17:49:25.676Z,8.20
2022-08-14T17:52:07.307Z,7.45
2022-08-14T17:54:36.957Z,7.10
2022-08-14T17:57:10.667Z,7.70
2022-08-14T17:59:42.147Z,7.00
2022-08-14T18:02:10.547Z,7.63
2022-08-14T18:04:44.347Z,7.45
2022-08-14T18:07:50.466Z,7.13
2022-08-14T18:10:52.465Z,7.17
2022-08-14T18:12:51.993Z,7.13
2022-08-14T18:15:18.794Z,7.45
2022-08-14T18:17:53.251Z,7.60
2022-08-14T18:21:40.013Z,7.00
2022-08-14T18:23:12.817Z,7.20
2022-08-14T18:25:51.921Z,7.45
2022-08-14T18:28:43.634Z,7.40
2022-08-14T18:31:44.029Z,7.43
2022-08-14T18:34:30.888Z,7.35
2022-08-14T18:37:09.656Z,7.30
2022-08-14T18:40:03.512Z,7.40
2022-08-14T18:42:44.131Z,7.45
2022-08-14T18:45:15.502Z,7.00
2022-08-14T18:50:31.285Z,6.72
2022-08-14T18:53:05.463Z,6.97
2022-08-14T18:55:53.388Z,7.40
2022-08-14T18:58:27.850Z,7.88
2022-08-14T19:00:59.711Z,6.93
2022-08-14T19:03:47.257Z,6.78
2022-08-14T19:06:16.773Z,7.40
2022-08-14T19:08:45.459Z,7.27
2022-08-14T19:11:45.317Z,7.38
2022-08-14T19:14:43.957Z,7.32
2022-08-14T19:17:40.994Z,7.32
2022-08-14T19:20:09.721Z,7.28
2022-08-14T19:22:40.603Z,7.00
2022-08-14T19:25:09.544Z,6.97
2022-08-14T19:27:41.070Z,7.30
2022-08-14T19:30:23.046Z,6.97
2022-08-14T19:32:53.114Z,7.63
2022-08-14T19:35:49.865Z,7.78
2022-08-14T19:38:57.547Z,7.10
2022-08-14T19:41:29.144Z,7.23
2022-08-14T19:44:10.977Z,7.07
2022-08-14T19:47:02.783Z,7.30
2022-08-14T19:50:08.357Z,6.90
2022-08-14T19:52:20.783Z,7.28
2022-08-14T19:54:50.438Z,7.13
2022-08-14T19:57:19.782Z,6.80
2022-08-14T19:59:57.410Z,6.97
2022-08-14T20:02:30.020Z,7.45
2022-08-14T20:04:58.254Z,7.22
2022-08-14T20:07:58.926Z,7.60
2022-08-14T20:11:06.795Z,7.20
2022-08-14T20:13:12.781Z,7.47
2022-08-14T20:15:47.642Z,6.95
2022-08-14T20:18:45.841Z,7.53
2022-08-14T20:21:01.290Z,7.15
2022-08-14T20:23:38.526Z,7.38
2022-08-14T20:26:31.581Z,6.83
2022-08-14T20:29:04.658Z,7.20
2022-08-14T20:31:37.265Z,7.32
2022-08-14T20:34:07.363Z,7.03
2022-08-14T20:36:37.984Z,7.20
2022-08-14T20:39:08.682Z,7.45
2022-08-14T20:41:35.365Z,7.72
2022-08-14T20:44:06.318Z,7.93
2022-08-14T20:46:38.735Z,7.45
2022-08-14T20:49:08.439Z,7.72
2022-08-14T20:51:37.528Z,7.13
2022-08-14T20:54:05.873Z,7.97
2022-08-14T20:56:34.258Z,7.20
2022-08-14T20:59:15.419Z,7.40
2022-08-14T21:01:45.013Z,7.63
2022-08-14T21:04:28.184Z,7.47
2022-08-14T21:07:24.831Z,7.85
2022-08-14T21:10:06.620Z,7.75
2022-08-14T21:12:34.085Z,7.40
2022-08-14T21:15:03.293Z,6.90
2022-08-14T21:17:31.289Z,7.10
2022-08-14T21:19:57.897Z,7.78
2022-08-14T21:22:24.722Z,8.02
2022-08-14T21:25:01.656Z,8.00
2022-08-14T21:27:28.732Z,8.13
2022-08-14T21:30:08.645Z,7.90
2022-08-14T21:32:47.034Z,8.35
2022-08-14T21:35:23.509Z,7.97
2022-08-14T21:37:51.025Z,7.75
2022-08-14T21:40:41.075Z,7.35
2022-08-14T21:43:11.601Z,7.60
2022-08-14T21:45:46.167Z,7.67
2022-08-14T21:48:25.075Z,7.97
2022-08-14T21:51:01.015Z,7.68
2022-08-14T21:53:58.018Z,7.10
2022-08-14T21:56:38.643Z,7.63
2022-08-14T21:59:08.263Z,7.70
2022-08-14T22:02:01.270Z,7.90
2022-08-14T22:04:34.032Z,7.13
2022-08-14T22:07:09.268Z,7.13
2022-08-14T22:09:37.550Z,7.05
2022-08-14T22:12:11.009Z,7.55
2022-08-14T22:14:57.597Z,7.07
2022-08-14T22:17:24.286Z,7.10
2022-08-14T22:19:54.876Z,7.43
2022-08-14T22:22:26.009Z,7.63
2022-08-14T22:24:53.879Z,7.65
2022-08-14T22:27:26.149Z,7.53
2022-08-14T22:29:54.898Z,8.23
2022-08-14T22:32:35.127Z,7.63
2022-08-14T22:35:04.646Z,7.75
2022-08-14T22:37:36.207Z,7.75
2022-08-14T22:40:54.807Z,7.32
2022-08-14T22:43:00.024Z,7.82
2022-08-14T22:45:36.664Z,7.43
2022-08-14T22:48:05.398Z,7.50
2022-08-14T22:50:48.749Z,7.65
2022-08-14T22:53:15.790Z,7.88
2022-08-14T22:55:43.366Z,8.13
2022-08-14T22:58:11.130Z,7.38
2022-08-14T23:00:44.517Z,8.30
2022-08-14T23:03:17.149Z,8.33
2022-08-14T23:05:51.610Z,7.95
2022-08-14T23:09:00.526Z,8.10
2022-08-14T23:11:09.410Z,8.48
2022-08-14T23:13:39.973Z,8.07
2022-08-14T23:16:10.629Z,7.70
2022-08-14T23:18:48.030Z,7.80
2022-08-14T23:21:24.341Z,7.43
2022-08-14T23:23:54.905Z,8.00
2022-08-14T23:26:49.570Z,7.55
2022-08-14T23:29:08.685Z,7.57
2022-08-14T23:31:38.463Z,7.67
2022-08-14T23:34:07.769Z,7.37
2022-08-14T23:36:53.410Z,8.23
2022-08-14T23:39:24.566Z,8.02
2022-08-14T23:41:57.210Z,7.50
2022-08-14T23:44:29.533Z,7.45
2022-08-14T23:46:56.884Z,7.57
2022-08-14T23:49:27.624Z,8.07
2022-08-14T23:52:51.638Z,7.65
2022-08-14T23:55:02.520Z,7.70
2022-08-14T23:57:30.627Z,7.63
2022-08-14T23:59:57.499Z,8.18
